Time;durP1;ratioP1;P1;durP2;ratioP2;P2;SDS_P1;SDS_P2;PMS_P1;PMS_P2;Temp;Humidity;BMP_temperature;BMP_pressure;BME280_temperature;BME280_humidity;BME280_pressure;Samples;Min_cycle;Max_cycle;Signal;HPM_P1;HPM_P2
2022/01/24 00:01:28;;;;;;;41.88;19.52;;;;;;;-2.58;100.00;98264.81;4999927;28;20017;-81
2022/01/24 00:03:57;;;;;;;34.92;16.35;;;;;;;-2.70;100.00;98256.91;5016085;28;20022;-82
2022/01/24 00:06:24;;;;;;;28.42;13.55;;;;;;;-2.78;100.00;98256.91;5000333;28;20030;-82
2022/01/24 00:08:50;;;;;;;23.10;10.63;;;;;;;-2.82;100.00;98261.25;4991606;28;20032;-82
2022/01/24 00:11:20;;;;;;;24.65;11.00;;;;;;;-2.79;100.00;98269.13;4999674;28;20104;-81
2022/01/24 00:16:56;;;;;;;20.67;10.00;;;;;;;-2.68;100.00;98269.16;5010733;28;20088;-81
2022/01/24 00:27:38;;;;;;;19.90;9.10;;;;;;;-2.71;100.00;98271.78;5013126;28;20188;-81
2022/01/24 00:30:04;;;;;;;15.73;8.27;;;;;;;-2.90;100.00;98263.00;5012468;28;20034;-81
2022/01/24 00:32:30;;;;;;;17.63;8.48;;;;;;;-2.79;100.00;98266.50;4996456;28;20509;-83
2022/01/24 00:34:55;;;;;;;17.70;8.43;;;;;;;-2.89;100.00;98249.03;5012612;28;20029;-81
2022/01/24 00:37:21;;;;;;;17.48;8.70;;;;;;;-2.74;100.00;98280.47;4996457;28;20397;-83
2022/01/24 00:39:47;;;;;;;18.02;8.70;;;;;;;-2.74;100.00;98274.38;4999538;28;20034;-81
2022/01/24 00:45:04;;;;;;;18.55;8.77;;;;;;;-2.77;100.00;98296.16;5012781;28;20434;-81
2022/01/24 00:47:45;;;;;;;17.33;8.80;;;;;;;-2.74;100.00;98301.41;4993420;28;20405;-82
2022/01/24 00:53:18;;;;;;;19.10;8.90;;;;;;;-2.71;100.00;98300.56;5012364;28;20112;-82
2022/01/24 00:55:46;;;;;;;20.67;9.55;;;;;;;-2.67;100.00;98301.41;5012772;28;20563;-82
2022/01/24 00:58:11;;;;;;;23.48;10.95;;;;;;;-2.62;100.00;98304.94;5012051;28;20133;-82
2022/01/24 01:00:37;;;;;;;26.60;12.80;;;;;;;-2.84;100.00;98294.44;5012542;28;20077;-82
2022/01/24 01:03:03;;;;;;;23.13;11.35;;;;;;;-2.61;100.00;98314.53;4995722;28;20030;-81
2022/01/24 01:21:07;;;;;;;32.65;14.88;;;;;;;-3.05;100.00;98296.97;5012495;28;20513;-82
2022/01/24 01:23:36;;;;;;;30.65;13.35;;;;;;;-2.93;100.00;98304.88;5005909;28;20034;-81
2022/01/24 01:26:06;;;;;;;29.13;13.23;;;;;;;-2.84;100.00;98310.13;5012153;28;20112;-81
2022/01/24 01:28:33;;;;;;;29.10;13.02;;;;;;;-3.18;100.00;98287.34;4984451;28;20034;-82
2022/01/24 01:31:04;;;;;;;27.58;12.93;;;;;;;-3.06;100.00;98321.38;4992271;28;20037;-82
2022/01/24 01:33:50;;;;;;;29.45;13.32;;;;;;;-2.95;100.00;98310.94;4995925;28;20034;-82
2022/01/24 01:36:24;;;;;;;30.30;13.60;;;;;;;-2.85;100.00;98316.22;5014161;28;20251;-82
2022/01/24 01:53:26;;;;;;;22.08;11.43;;;;;;;-2.66;100.00;98325.00;5011502;28;20536;-82
2022/01/24 01:55:49;;;;;;;27.05;12.43;;;;;;;-2.80;100.00;98318.88;5011290;28;20069;-82
2022/01/24 01:58:17;;;;;;;28.60;12.55;;;;;;;-2.82;100.00;98321.47;4995143;28;20117;-82
2022/01/24 02:00:50;;;;;;;29.48;12.77;;;;;;;-2.78;100.00;98325.84;4984033;28;20415;-83
2022/01/24 02:03:17;;;;;;;31.13;13.85;;;;;;;-2.80;100.00;98326.72;4994775;28;20040;-82
2022/01/24 02:05:43;;;;;;;21.77;11.07;;;;;;;-2.75;100.00;98328.47;4994798;28;20042;-82
2022/01/24 02:08:08;;;;;;;25.13;11.20;;;;;;;-2.86;100.00;98319.69;5011128;28;20030;-81
2022/01/24 02:10:36;;;;;;;21.27;9.63;;;;;;;-2.98;100.00;98331.88;5010837;28;20032;-82
2022/01/24 02:13:02;;;;;;;22.20;9.65;;;;;;;-3.01;100.00;98317.03;5008174;28;20073;-83
2022/01/24 02:26:10;;;;;;;;;;;;;;;-3.49;100.00;98342.97;5011185;28;20490;-81
2022/01/24 02:29:48;;;;;;;20.20;8.73;;;;;;;-3.68;100.00;98339.34;5010901;28;20317;-82
2022/01/24 02:34:26;;;;;;;22.65;9.23;;;;;;;-3.77;100.00;98343.66;5010927;28;20112;-81
2022/01/24 02:37:22;;;;;;;21.35;10.38;;;;;;;-3.90;100.00;98324.38;5026446;28;20417;-82
2022/01/24 02:40:23;;;;;;;25.38;10.10;;;;;;;-3.80;100.00;98338.41;4975404;28;20456;-82
2022/01/24 02:48:21;;;;;;;23.35;10.57;;;;;;;-4.07;100.00;98298.16;5011915;28;20573;-82
2022/01/24 02:48:54;;;;;;;18.77;7.82;;;;;;;-4.12;100.00;98296.41;5008658;28;20034;-82
2022/01/24 02:53:52;;;;;;;13.88;7.07;;;;;;;-4.21;100.00;98322.41;5010465;28;20041;-81
2022/01/24 02:56:18;;;;;;;18.05;7.32;;;;;;;-4.04;100.00;98373.94;5010288;28;20026;-81
2022/01/24 02:58:43;;;;;;;20.17;7.43;;;;;;;-3.98;100.00;98366.16;4993887;28;20120;-81
2022/01/24 03:01:09;;;;;;;17.58;7.20;;;;;;;-4.00;100.00;98364.41;4990367;28;20033;-81
2022/01/24 03:03:36;;;;;;;12.70;7.18;;;;;;;-3.84;100.00;98389.75;4991851;28;20033;-80
2022/01/24 03:06:03;;;;;;;17.73;7.95;;;;;;;-4.02;100.00;98394.81;4993883;28;20034;-81
2022/01/24 03:08:29;;;;;;;17.33;8.77;;;;;;;-4.05;100.00;98390.47;5010166;28;20022;-81
2022/01/24 03:10:54;;;;;;;15.90;8.18;;;;;;;-4.14;100.00;98366.00;4994022;28;20040;-81
2022/01/24 03:13:32;;;;;;;16.42;8.40;;;;;;;-4.04;100.00;98371.31;5010172;28;20049;-82
2022/01/24 03:16:00;;;;;;;14.82;8.07;;;;;;;-3.87;100.00;98402.78;4991895;28;20034;-82
2022/01/24 03:18:26;;;;;;;15.02;7.93;;;;;;;-3.93;100.00;98393.19;4988566;28;20449;-80
2022/01/24 03:20:51;;;;;;;16.05;7.90;;;;;;;-3.73;100.00;98400.31;5010107;28;20413;-82
2022/01/24 03:23:22;;;;;;;16.40;8.13;;;;;;;-3.66;100.00;98409.94;4993830;28;20034;-82
2022/01/24 03:25:48;;;;;;;15.30;7.60;;;;;;;-3.67;100.00;98416.03;5010303;28;20026;-81
2022/01/24 03:28:13;;;;;;;14.38;7.43;;;;;;;-3.85;100.00;98390.63;4993550;28;20464;-81
2022/01/24 03:31:08;;;;;;;13.88;7.20;;;;;;;-3.71;100.00;98403.78;4993709;28;20033;-81
2022/01/24 03:33:34;;;;;;;15.23;7.82;;;;;;;-3.59;99.65;98409.09;5006062;28;20045;-82
2022/01/24 03:35:59;;;;;;;17.65;7.78;;;;;;;-3.55;98.21;98400.44;5009643;28;20142;-82
2022/01/24 03:38:25;;;;;;;15.70;7.28;;;;;;;-3.52;97.29;98396.09;4993511;28;20048;-82
2022/01/24 03:40:50;;;;;;;14.40;6.43;;;;;;;-3.50;96.21;98399.59;4993414;28;20504;-82
2022/01/24 03:43:17;;;;;;;16.23;7.68;;;;;;;-3.40;96.94;98406.66;5009816;28;20079;-82
2022/01/24 03:45:46;;;;;;;22.80;9.48;;;;;;;-3.33;95.43;98407.56;4993542;28;20097;-82
2022/01/24 03:48:30;;;;;;;23.60;8.45;;;;;;;-3.44;94.05;98404.88;5004930;28;20030;-81
2022/01/24 03:50:55;;;;;;;16.73;7.72;;;;;;;-3.34;92.38;98414.53;5013742;28;20401;-82
2022/01/24 03:53:21;;;;;;;20.52;8.00;;;;;;;-3.42;91.82;98413.63;5013020;28;20050;-81
2022/01/24 03:55:47;;;;;;;16.33;7.28;;;;;;;-3.51;91.61;98412.69;5013110;28;20063;-80
2022/01/24 03:58:12;;;;;;;12.95;7.45;;;;;;;-3.48;93.41;98413.56;5013159;28;20540;-81
2022/01/24 04:00:50;;;;;;;18.45;7.80;;;;;;;-3.56;93.44;98411.75;4996943;28;20038;-81
2022/01/24 04:03:16;;;;;;;17.23;7.55;;;;;;;-3.64;94.27;98397.75;4993613;28;20026;-82
2022/01/24 04:05:42;;;;;;;27.67;9.07;;;;;;;-3.49;93.50;98400.47;4992474;28;20036;-84
2022/01/24 04:08:10;;;;;;;53.30;16.52;;;;;;;-3.50;93.66;98415.28;4996512;28;20080;-81
2022/01/24 04:10:46;;;;;;;27.98;10.50;;;;;;;-3.54;92.97;98425.72;4996802;28;20084;-82
2022/01/24 04:13:28;;;;;;;23.05;9.48;;;;;;;-3.59;94.04;98437.88;5014213;28;20030;-82
2022/01/24 04:21:27;;;;;;;23.50;11.65;;;;;;;-3.48;93.51;98449.31;5013064;28;20030;-75
2022/01/24 04:24:10;;;;;;;36.38;16.40;;;;;;;-3.69;94.29;98449.97;5000332;28;20490;-86
2022/01/24 04:26:38;;;;;;;31.00;14.82;;;;;;;-3.74;95.26;98466.50;5000400;28;20552;-85
2022/01/24 04:29:05;;;;;;;33.92;15.07;;;;;;;-3.64;95.01;98468.31;4996369;28;20110;-85
2022/01/24 04:31:31;;;;;;;29.80;14.68;;;;;;;-3.95;95.22;98468.06;5013602;28;20029;-85
2022/01/24 04:33:58;;;;;;;30.70;13.05;;;;;;;-3.91;95.91;98469.81;4996842;28;20437;-85
2022/01/24 04:36:23;;;;;;;23.17;10.60;;;;;;;-3.81;94.88;98481.22;4996941;28;20021;-86
2022/01/24 04:38:50;;;;;;;20.23;8.07;;;;;;;-3.80;94.12;98497.78;5014507;28;20386;-86
2022/01/24 04:41:21;;;;;;;17.33;7.32;;;;;;;-4.02;96.74;98497.59;5012304;28;20125;-85
2022/01/24 04:54:38;;;;;;;31.35;15.18;;;;;;;-4.01;98.27;98503.69;5013207;28;20028;-74
2022/01/24 04:57:03;;;;;;;33.03;14.55;;;;;;;-3.91;97.40;98510.78;5012643;28;20115;-84
2022/01/24 04:59:28;;;;;;;29.92;12.30;;;;;;;-3.99;97.39;98513.28;4995538;28;20076;-84
2022/01/24 05:01:54;;;;;;;33.95;15.07;;;;;;;-3.84;98.27;98518.66;4996351;28;20030;-84
2022/01/24 05:04:19;;;;;;;24.92;11.63;;;;;;;-3.67;98.10;98531.03;5011031;28;20040;-84
2022/01/24 05:06:45;;;;;;;24.98;13.38;;;;;;;-3.94;97.92;98516.81;4994626;28;20032;-84
2022/01/24 05:09:11;;;;;;;33.78;14.50;;;;;;;-4.08;98.80;98518.41;4993974;28;20053;-83
2022/01/24 05:12:00;;;;;;;28.08;12.23;;;;;;;-4.28;99.22;98530.38;5010274;28;20385;-83
2022/01/24 05:25:25;;;;;;;24.45;10.75;;;;;;;-4.31;100.00;98546.00;5010505;28;20040;-85
2022/01/24 05:27:50;;;;;;;24.40;11.52;;;;;;;-4.22;100.00;98551.34;5010099;28;20030;-85
2022/01/24 05:30:16;;;;;;;24.20;11.35;;;;;;;-4.30;100.00;98542.53;5009849;28;20092;-84
2022/01/24 05:32:42;;;;;;;37.35;15.75;;;;;;;-4.30;100.00;98542.53;5010291;28;20037;-84
2022/01/24 05:35:08;;;;;;;47.85;21.90;;;;;;;-4.36;100.00;98552.88;4991903;28;20524;-85
2022/01/24 05:37:34;;;;;;;52.35;23.98;;;;;;;-4.52;100.00;98548.34;4982286;28;20029;-85
2022/01/24 05:40:00;;;;;;;53.47;22.20;;;;;;;-4.45;100.00;98565.81;5009541;28;20044;-84
2022/01/24 05:42:25;;;;;;;40.00;18.40;;;;;;;-4.47;100.00;98565.81;5009567;28;20030;-84
2022/01/24 05:44:52;;;;;;;37.15;17.23;;;;;;;-4.26;100.00;98582.59;5009566;28;20417;-84
2022/01/24 05:47:18;;;;;;;41.97;18.05;;;;;;;-4.25;100.00;98577.41;5009577;28;20026;-84
2022/01/24 05:49:44;;;;;;;45.72;19.80;;;;;;;-4.16;100.00;98577.53;4993471;28;20048;-85
2022/01/24 05:52:11;;;;;;;53.75;23.25;;;;;;;-4.20;100.00;98575.72;4993056;28;20395;-85
2022/01/24 05:54:37;;;;;;;44.28;20.08;;;;;;;-4.30;100.00;98584.28;4978804;28;20479;-86
2022/01/24 05:57:04;;;;;;;61.75;28.33;;;;;;;-4.32;100.00;98579.91;5009691;28;20036;-85
2022/01/24 05:59:30;;;;;;;52.20;23.05;;;;;;;-4.25;100.00;98574.81;4978360;28;20030;-74
2022/01/24 06:01:55;;;;;;;49.67;22.30;;;;;;;-4.07;100.00;98585.47;5009852;28;20558;-84
2022/01/24 06:04:21;;;;;;;40.53;16.73;;;;;;;-4.01;100.00;98590.78;5010421;28;20176;-83
2022/01/24 06:06:46;;;;;;;36.75;17.75;;;;;;;-4.13;100.00;98581.91;4993277;28;20485;-84
2022/01/24 06:09:12;;;;;;;39.60;17.58;;;;;;;-3.93;100.00;98606.53;5010819;28;20490;-84
2022/01/24 06:11:38;;;;;;;128.02;45.85;;;;;;;-4.00;100.00;98621.25;5009071;28;20457;-86
2022/01/24 06:14:04;;;;;;;113.05;41.10;;;;;;;-4.08;100.00;98622.00;4988224;28;20030;-85
2022/01/24 06:16:30;;;;;;;69.00;28.00;;;;;;;-4.10;100.00;98613.28;4994294;28;20060;-85
2022/01/24 06:18:55;;;;;;;56.88;22.73;;;;;;;-4.03;100.00;98620.34;4993420;28;20033;-85
2022/01/24 06:21:21;;;;;;;33.90;15.80;;;;;;;-4.20;100.00;98612.28;4986486;28;20413;-85
2022/01/24 06:23:47;;;;;;;35.60;16.48;;;;;;;-4.25;100.00;98628.75;5009761;28;20132;-84
2022/01/24 06:26:13;;;;;;;42.65;19.52;;;;;;;-4.29;100.00;98616.50;4986360;28;20419;-86
2022/01/24 06:28:40;;;;;;;54.03;23.10;;;;;;;-4.37;100.00;98614.66;4989650;28;20121;-85
2022/01/24 06:31:05;;;;;;;84.63;35.45;;;;;;;-4.25;100.00;98624.44;4992412;28;20038;-86
2022/01/24 06:33:31;;;;;;;47.63;21.63;;;;;;;-4.20;100.00;98591.41;4992948;28;20107;-85
2022/01/24 06:35:57;;;;;;;33.63;16.20;;;;;;;-4.05;100.00;98615.09;5009423;28;20437;-85
2022/01/24 06:38:23;;;;;;;25.25;11.80;;;;;;;-4.13;97.20;98618.47;4992717;28;20037;-86
2022/01/24 06:40:48;;;;;;;22.58;10.25;;;;;;;-3.98;96.90;98639.56;4986436;28;20033;-86
2022/01/24 06:43:14;;;;;;;23.70;9.95;;;;;;;-3.87;96.06;98643.16;5004400;28;20365;-85
2022/01/24 06:45:40;;;;;;;31.63;14.13;;;;;;;-4.03;93.26;98657.78;5007021;28;20090;-85
2022/01/24 06:48:05;;;;;;;22.05;10.43;;;;;;;-4.01;95.53;98645.63;4992884;28;20083;-84
2022/01/24 06:50:31;;;;;;;25.60;10.25;;;;;;;-3.86;94.86;98639.72;4978249;28;20405;-83
2022/01/24 06:52:57;;;;;;;21.45;9.43;;;;;;;-3.71;93.88;98665.16;4992867;28;20430;-84
2022/01/24 06:55:22;;;;;;;28.48;12.30;;;;;;;-3.79;93.95;98645.91;4993657;28;20432;-85
2022/01/24 06:57:48;;;;;;;31.73;13.65;;;;;;;-3.72;91.25;98669.50;5000185;28;20041;-86
2022/01/24 07:00:14;;;;;;;27.92;13.00;;;;;;;-3.74;91.78;98662.50;4993146;28;20490;-85
2022/01/24 07:02:41;;;;;;;26.13;12.35;;;;;;;-3.54;91.48;98677.56;4993033;28;20041;-85
2022/01/24 07:05:07;;;;;;;26.13;12.70;;;;;;;-3.28;91.72;98667.38;5009123;28;20125;-84
2022/01/24 07:07:34;;;;;;;35.50;12.77;;;;;;;-3.21;90.68;98684.91;4992095;28;20085;-85
2022/01/24 07:10:00;;;;;;;43.03;18.80;;;;;;;-3.23;89.57;98677.91;4979767;28;20069;-86
2022/01/24 07:12:25;;;;;;;24.42;12.50;;;;;;;-3.08;88.65;98680.66;4993115;28;20029;-85
2022/01/24 07:14:52;;;;;;;38.50;15.43;;;;;;;-3.12;87.56;98685.00;4991971;28;20571;-83
2022/01/24 07:19:43;;;;;;;29.90;14.40;;;;;;;-2.99;87.78;98667.69;5008701;28;20030;-85
2022/01/24 07:22:09;;;;;;;30.42;13.90;;;;;;;-2.70;87.37;98699.31;5009415;28;20529;-85
2022/01/24 07:24:35;;;;;;;37.92;18.13;;;;;;;-2.74;86.17;98682.75;4991593;28;20018;-84
2022/01/24 07:27:02;;;;;;;33.72;15.93;;;;;;;-2.65;84.75;98702.88;4996438;28;20036;-84
2022/01/24 07:29:28;;;;;;;28.75;13.23;;;;;;;-2.48;82.88;98720.47;5012980;28;20040;-85
2022/01/24 07:31:54;;;;;;;33.30;16.15;;;;;;;-2.69;82.74;98690.63;4996118;28;20479;-84
2022/01/24 07:34:19;;;;;;;26.38;12.70;;;;;;;-2.87;82.48;98689.59;4995992;28;20120;-85
2022/01/24 07:36:45;;;;;;;40.20;18.85;;;;;;;-2.67;83.13;98701.97;4996026;28;20128;-84
2022/01/24 07:39:12;;;;;;;36.10;16.77;;;;;;;-2.42;83.23;98717.03;5012227;28;20026;-84
2022/01/24 07:41:47;;;;;;;24.35;11.80;;;;;;;-2.33;82.37;98715.34;4996383;28;20457;-84
2022/01/24 07:44:14;;;;;;;31.35;14.32;;;;;;;-2.30;80.75;98727.59;5014107;28;20041;-84
2022/01/24 07:46:40;;;;;;;36.95;17.10;;;;;;;-2.37;80.21;98725.81;4995603;28;20124;-85
2022/01/24 07:49:08;;;;;;;25.42;13.13;;;;;;;-2.47;80.08;98731.84;4996024;28;20161;-85
2022/01/24 07:51:34;;;;;;;32.80;13.63;;;;;;;-2.20;78.95;98722.44;4995768;28;20131;-85
2022/01/24 07:54:00;;;;;;;35.70;15.43;;;;;;;-1.55;75.73;98706.22;5012430;28;20808;-85
2022/01/24 07:56:26;;;;;;;48.17;22.67;;;;;;;-1.00;74.66;98723.00;5011556;28;20069;-85
2022/01/24 07:58:51;;;;;;;35.35;16.48;;;;;;;-0.94;73.78;98719.53;5012083;28;20030;-84
2022/01/24 08:01:26;;;;;;;39.38;18.80;;;;;;;-0.52;71.82;98718.72;5012167;28;20029;-85
2022/01/24 08:03:52;;;;;;;44.75;21.95;;;;;;;-0.76;72.44;98707.31;5012516;28;20036;-85
2022/01/24 08:06:18;;;;;;;23.85;11.25;;;;;;;-1.33;70.57;98720.28;4995424;28;20406;-84
2022/01/24 08:08:44;;;;;;;28.27;13.23;;;;;;;-0.47;68.94;98732.72;5011790;28;20030;-85
2022/01/24 08:11:11;;;;;;;21.05;10.70;;;;;;;-0.28;66.79;98716.09;5012160;28;20045;-83
2022/01/24 08:13:37;;;;;;;27.83;13.00;;;;;;;-0.58;66.92;98738.84;4991711;28;20089;-85
2022/01/24 08:16:03;;;;;;;25.65;12.70;;;;;;;-1.00;66.81;98727.38;5008954;28;20054;-85
2022/01/24 08:18:28;;;;;;;22.63;11.27;;;;;;;-1.34;69.98;98748.28;4985413;28;20032;-85
2022/01/24 08:20:54;;;;;;;18.42;9.65;;;;;;;-1.52;68.57;98737.69;4995254;28;20036;-85
2022/01/24 08:23:20;;;;;;;44.25;16.77;;;;;;;-1.61;70.64;98731.53;5011137;28;20034;-84
2022/01/24 08:25:46;;;;;;;21.00;10.93;;;;;;;-1.27;70.19;98736.06;5011910;28;20041;-84
2022/01/24 08:28:11;;;;;;;22.65;10.57;;;;;;;-1.69;70.88;98749.84;5011514;28;20037;-85
2022/01/24 08:30:37;;;;;;;24.15;11.60;;;;;;;-1.45;70.28;98746.47;4983941;28;20041;-84
2022/01/24 08:33:04;;;;;;;19.90;9.60;;;;;;;-1.16;68.67;98747.47;4991933;28;20525;-85
2022/01/24 08:35:29;;;;;;;18.50;9.13;;;;;;;-1.08;66.91;98751.84;4992391;28;20057;-85
2022/01/24 08:37:55;;;;;;;22.08;10.02;;;;;;;-0.90;66.43;98747.53;4995056;28;20042;-84
2022/01/24 08:40:27;;;;;;;22.13;9.25;;;;;;;-1.15;66.71;98754.47;4995034;28;20030;-85
2022/01/24 08:42:59;;;;;;;22.63;9.55;;;;;;;-0.68;63.31;98768.59;5011445;28;20030;-85
2022/01/24 08:48:10;;;;;;;23.50;10.02;;;;;;;-1.24;63.00;98762.31;5010624;28;20477;-83
2022/01/24 08:50:36;;;;;;;20.83;9.88;;;;;;;-0.70;62.76;98758.97;4991746;28;20018;-85
2022/01/24 08:53:03;;;;;;;17.35;8.05;;;;;;;-0.49;61.72;98758.13;5010475;28;20454;-84
2022/01/24 08:55:33;;;;;;;20.70;9.23;;;;;;;-0.30;60.05;98738.84;5008959;28;20022;-85
2022/01/24 08:58:00;;;;;;;19.92;9.30;;;;;;;-0.23;60.75;98756.38;5003042;28;20025;-84
2022/01/24 09:00:27;;;;;;;22.90;9.70;;;;;;;-0.32;61.42;98759.88;5011207;28;20025;-86
2022/01/24 09:02:52;;;;;;;11.77;6.75;;;;;;;0.84;59.13;98763.19;4994743;28;20034;-84
2022/01/24 09:05:21;;;;;;;30.35;12.70;;;;;;;1.48;56.21;98732.94;5011584;28;20033;-85
2022/01/24 09:07:47;;;;;;;13.38;6.85;;;;;;;1.68;55.44;98759.19;5012946;28;20554;-85
2022/01/24 09:10:12;;;;;;;13.10;6.93;;;;;;;1.41;56.02;98762.91;5012770;28;20022;-86
2022/01/24 09:12:38;;;;;;;13.57;7.95;;;;;;;1.40;56.01;98745.31;5012576;28;20497;-85
2022/01/24 09:15:04;;;;;;;14.95;7.55;;;;;;;1.23;55.57;98752.44;4996203;28;20113;-85
2022/01/24 09:17:30;;;;;;;13.27;6.82;;;;;;;0.92;56.43;98762.25;4996121;28;20120;-85
2022/01/24 09:19:56;;;;;;;13.98;7.57;;;;;;;0.81;56.61;98764.06;5012732;28;20490;-85
2022/01/24 09:22:21;;;;;;;17.27;7.70;;;;;;;0.33;57.94;98775.63;5009327;28;20030;-84
2022/01/24 09:24:47;;;;;;;17.23;7.63;;;;;;;0.11;58.51;98751.97;5012249;28;20049;-85
2022/01/24 09:27:13;;;;;;;12.55;6.53;;;;;;;-0.37;60.93;98794.94;5012376;28;20018;-86
2022/01/24 09:29:38;;;;;;;13.68;7.18;;;;;;;-0.35;62.12;98795.81;5012247;28;20140;-85
2022/01/24 09:32:04;;;;;;;19.15;8.85;;;;;;;-0.60;63.67;98797.50;5012437;28;20021;-84
2022/01/24 09:34:30;;;;;;;15.45;8.13;;;;;;;-0.50;63.30;98790.53;5012256;28;20116;-85
2022/01/24 09:36:56;;;;;;;18.73;8.82;;;;;;;-0.03;61.64;98783.53;4995762;28;20061;-86
2022/01/24 09:39:22;;;;;;;15.75;8.35;;;;;;;-0.33;61.71;98789.66;5008514;28;20037;-85
2022/01/24 09:41:47;;;;;;;17.85;8.65;;;;;;;-0.31;61.52;98787.06;4995815;28;20053;-85
2022/01/24 09:44:13;;;;;;;21.15;9.70;;;;;;;-0.48;62.58;98789.66;5012851;28;20064;-85
2022/01/24 09:46:40;;;;;;;18.20;8.30;;;;;;;-0.21;62.37;98784.41;5012329;28;20042;-85
2022/01/24 09:49:06;;;;;;;14.57;7.47;;;;;;;-0.16;60.26;98768.66;5012626;28;20088;-85
2022/01/24 09:51:33;;;;;;;19.63;8.20;;;;;;;-0.51;61.50;98781.75;5012141;28;20046;-85
2022/01/24 09:53:58;;;;;;;18.63;9.20;;;;;;;-0.47;63.10;98772.16;4996148;28;20560;-86
2022/01/24 09:56:24;;;;;;;18.85;8.35;;;;;;;-0.11;61.37;98780.03;4996037;28;20033;-86
2022/01/24 09:58:50;;;;;;;16.83;8.90;;;;;;;0.30;58.46;98757.22;5012447;28;20084;-86
2022/01/24 10:01:18;;;;;;;21.50;8.40;;;;;;;0.11;57.47;98760.75;5011953;28;20037;-86
2022/01/24 10:04:10;;;;;;;16.33;7.00;;;;;;;-1.41;62.68;98787.56;5009526;28;20034;-85
2022/01/24 10:06:54;;;;;;;15.43;7.32;;;;;;;-1.03;64.69;98790.38;5003458;28;20060;-86
2022/01/24 10:09:43;;;;;;;15.68;7.75;;;;;;;-0.41;62.71;98790.53;5017589;28;20042;-85
2022/01/24 10:18:01;;;;;;;13.65;7.32;;;;;;;-0.07;61.58;98759.03;5012303;28;20091;-85
2022/01/24 10:20:33;;;;;;;14.82;7.50;;;;;;;0.12;57.17;98741.47;4995346;28;20484;-85
2022/01/24 10:23:20;;;;;;;12.77;6.50;;;;;;;0.29;57.59;98741.41;4995252;28;20029;-85
2022/01/24 10:26:04;;;;;;;16.88;8.35;;;;;;;0.43;58.74;98737.00;5011383;28;20029;-84
2022/01/24 10:28:38;;;;;;;15.80;8.02;;;;;;;2.01;53.82;98721.09;5005080;28;20026;-85
2022/01/24 10:31:24;;;;;;;11.18;6.15;;;;;;;1.50;51.35;98725.06;4986965;28;20034;-84
2022/01/24 10:34:03;;;;;;;18.83;9.52;;;;;;;1.64;52.78;98724.06;5011664;28;20061;-86
2022/01/24 10:36:42;;;;;;;16.10;8.32;;;;;;;0.89;54.61;98741.19;5000050;28;20450;-85
2022/01/24 10:39:33;;;;;;;16.80;8.15;;;;;;;0.53;54.93;98754.50;5015419;28;20448;-85
2022/01/24 10:44:54;;;;;;;17.45;7.57;;;;;;;-0.38;57.43;98743.25;5011625;28;20112;-84
2022/01/24 10:47:23;;;;;;;17.90;9.18;;;;;;;-0.34;59.20;98766.03;5008709;28;20486;-83
2022/01/24 10:49:52;;;;;;;18.23;8.73;;;;;;;-1.01;60.14;98768.50;5007619;28;20456;-87
2022/01/24 10:52:30;;;;;;;20.33;8.52;;;;;;;-1.26;60.89;98724.69;5011380;28;20053;-85
2022/01/24 10:55:18;;;;;;;19.30;9.48;;;;;;;-1.01;61.04;98773.75;5007989;28;20033;-85
2022/01/24 10:57:46;;;;;;;15.95;7.55;;;;;;;-0.92;61.38;98752.78;5007432;28;20053;-85
2022/01/24 11:00:30;;;;;;;16.17;8.10;;;;;;;-1.39;64.37;98764.88;4995288;28;20026;-85
2022/01/24 11:03:00;;;;;;;18.48;8.98;;;;;;;-1.60;65.89;98770.91;4994764;28;20026;-85
2022/01/24 11:05:25;;;;;;;17.17;8.32;;;;;;;-1.31;66.76;98785.03;5011274;28;20030;-85
2022/01/24 11:07:58;;;;;;;24.80;13.63;;;;;;;-1.28;64.79;98778.91;5026837;28;20159;-86
2022/01/24 11:10:36;;;;;;;16.52;7.95;;;;;;;-1.07;63.74;98768.50;5011238;28;20121;-86
2022/01/24 11:13:05;;;;;;;27.60;11.18;;;;;;;-0.85;59.77;98733.56;4989417;28;20422;-86
2022/01/24 11:15:33;;;;;;;15.25;7.43;;;;;;;-0.76;57.91;98741.44;4995570;28;20120;-86
2022/01/24 11:18:00;;;;;;;17.55;8.73;;;;;;;-0.72;57.85;98751.09;4994980;28;20534;-85
2022/01/24 11:20:32;;;;;;;17.83;7.82;;;;;;;-1.15;60.41;98736.97;5011408;28;20061;-86
2022/01/24 11:23:04;;;;;;;9.57;4.68;;;;;;;-0.85;57.50;98745.78;5009315;28;20019;-86
2022/01/24 11:25:39;;;;;;;11.05;6.10;;;;;;;-1.08;57.77;98740.50;5004811;28;20037;-86
2022/01/24 11:28:06;;;;;;;12.75;6.85;;;;;;;-0.99;59.21;98760.66;5011045;28;20545;-85
2022/01/24 11:30:42;;;;;;;18.60;8.52;;;;;;;-0.98;60.19;98772.88;5011491;28;20025;-85
2022/01/24 11:33:15;;;;;;;14.63;7.43;;;;;;;-0.84;60.98;98773.81;5011507;28;20022;-75
2022/01/24 11:35:51;;;;;;;16.38;7.10;;;;;;;-0.48;58.68;98773.00;4998560;28;20061;-89
2022/01/24 11:38:27;;;;;;;17.77;8.90;;;;;;;-0.75;59.17;98755.47;4988728;28;20038;-85
2022/01/24 11:40:59;;;;;;;18.23;8.10;;;;;;;-1.12;60.92;98763.25;5013325;28;20030;-86
2022/01/24 11:43:33;;;;;;;17.30;8.35;;;;;;;-1.42;61.33;98765.75;4979950;28;20030;-86
2022/01/24 11:46:05;;;;;;;16.63;8.02;;;;;;;-1.63;62.36;98764.75;5028305;28;20117;-89
2022/01/24 11:48:32;;;;;;;14.60;7.82;;;;;;;-1.89;63.38;98793.41;5011696;28;20022;-87
2022/01/24 11:51:03;;;;;;;14.88;7.63;;;;;;;-1.86;64.56;98796.06;5007913;28;20568;-87
2022/01/24 11:53:32;;;;;;;18.02;7.80;;;;;;;-1.90;67.59;98807.38;5010752;28;20042;-87
2022/01/24 11:56:20;;;;;;;19.38;10.25;;;;;;;-1.72;70.08;98807.50;4995625;28;20421;-86
2022/01/24 11:58:45;;;;;;;20.33;10.00;;;;;;;-1.37;67.50;98805.09;5001957;28;20101;-87
2022/01/24 12:01:18;;;;;;;23.52;9.15;;;;;;;-1.55;66.15;98797.13;4986603;28;20026;-86
2022/01/24 12:03:51;;;;;;;19.75;9.95;;;;;;;-1.63;66.97;98797.06;4993304;28;20030;-85
2022/01/24 12:06:19;;;;;;;20.02;8.68;;;;;;;-1.79;66.21;98783.00;4994815;28;20409;-86
2022/01/24 12:08:47;;;;;;;22.50;10.48;;;;;;;-1.84;68.83;98805.69;5012916;28;20026;-86
2022/01/24 12:11:29;;;;;;;23.60;10.45;;;;;;;-1.76;68.71;98796.16;4995084;28;20567;-86
2022/01/24 12:14:02;;;;;;;21.50;10.40;;;;;;;-1.87;71.59;98807.41;4999733;28;20493;-88
2022/01/24 12:16:37;;;;;;;18.95;9.30;;;;;;;-2.27;74.43;98806.22;5016362;28;20038;-87
2022/01/24 12:19:03;;;;;;;26.77;11.90;;;;;;;-2.35;78.86;98807.91;5014722;28;20481;-85
2022/01/24 12:21:30;;;;;;;23.25;11.48;;;;;;;-2.06;75.73;98805.53;4999563;28;20025;-87
2022/01/24 12:24:02;;;;;;;27.63;12.35;;;;;;;-1.38;71.93;98787.59;4995466;28;20034;-86
2022/01/24 12:26:38;;;;;;;25.50;11.57;;;;;;;-0.94;68.38;98780.78;4995442;28;20075;-86
2022/01/24 12:29:07;;;;;;;22.02;10.52;;;;;;;-1.19;65.84;98731.69;5015138;28;20030;-86
2022/01/24 12:31:39;;;;;;;20.40;9.70;;;;;;;-0.86;66.43;98786.09;4996402;28;20026;-86
2022/01/24 12:34:22;;;;;;;12.98;6.70;;;;;;;-1.10;67.17;98789.47;4999084;28;20030;-87
2022/01/24 12:37:24;;;;;;;21.33;9.80;;;;;;;-1.07;68.64;98800.00;5028765;28;20472;-86
2022/01/24 12:39:52;;;;;;;31.45;15.57;;;;;;;-0.74;70.99;98813.22;4995938;28;20038;-87
2022/01/24 12:42:46;;;;;;;36.15;15.40;;;;;;;-0.82;70.93;98806.22;5030695;28;20551;-86
2022/01/24 12:48:15;;;;;;;;;;;;;;;-0.87;71.50;98816.72;5015276;28;20038;-74
2022/01/24 12:50:42;;;;;;;25.80;10.35;;;;;;;-1.14;71.48;98824.47;5012126;28;19935;-73
2022/01/24 12:53:10;;;;;;;19.05;9.93;;;;;;;-1.16;70.70;98807.81;5011610;28;20049;-80
2022/01/24 12:55:37;;;;;;;23.33;10.40;;;;;;;-1.04;69.70;98800.00;5012594;28;20065;-79
2022/01/24 12:58:03;;;;;;;32.58;15.60;;;;;;;-1.18;70.27;98809.56;5012147;28;20034;-80
2022/01/24 13:00:29;;;;;;;30.02;15.00;;;;;;;-0.99;69.00;98808.78;5012391;28;20084;-80
2022/01/24 13:02:54;;;;;;;30.40;14.35;;;;;;;-1.04;69.83;98809.63;4995842;28;20030;-80
2022/01/24 13:05:20;;;;;;;33.50;16.23;;;;;;;-1.32;71.32;98813.88;5012089;28;20499;-79
2022/01/24 13:07:57;;;;;;;34.23;16.70;;;;;;;-1.10;72.49;98811.34;4995731;28;20102;-81
2022/01/24 13:10:26;;;;;;;54.88;21.95;;;;;;;-0.72;72.91;98815.88;4993922;28;20030;-80
2022/01/24 13:13:06;;;;;;;50.90;21.38;;;;;;;-0.51;71.16;98815.94;5012005;28;20459;-79
2022/01/24 13:21:09;;;;;;;31.85;14.38;;;;;;;-0.83;69.29;98809.72;5012091;28;20103;-80
2022/01/24 13:23:35;;;;;;;27.13;13.43;;;;;;;-0.78;70.59;98819.38;5011544;28;20030;-80
2022/01/24 13:26:06;;;;;;;28.30;12.13;;;;;;;-0.51;70.02;98818.56;4993652;28;20078;-80